Time;durP1;ratioP1;P1;durP2;ratioP2;P2;SDS_P1;SDS_P2;PMS_P1;PMS_P2;Temp;Humidity;BMP_temperature;BMP_pressure;BME280_temperature;BME280_humidity;BME280_pressure;Samples;Min_cycle;Max_cycle;Signal;HPM_P1;HPM_P2
2022/03/14 00:01:21;;;;;;;12.03;5.87;;;;;;;;;;5091751;28;20035;-68
2022/03/14 00:03:57;;;;;;;11.20;6.00;;;;;;;;;;5091257;28;20052;-68
2022/03/14 00:06:22;;;;;;;11.40;5.57;;;;;;;;;;5092529;28;20748;-68
2022/03/14 00:08:47;;;;;;;15.03;6.10;;;;;;;;;;5095333;28;20032;-68
2022/03/14 00:11:14;;;;;;;12.97;6.47;;;;;;;;;;5090184;28;20032;-68
2022/03/14 00:13:40;;;;;;;12.17;6.20;;;;;;;;;;5088210;28;20113;-68
2022/03/14 00:16:08;;;;;;;12.17;5.77;;;;;;;;;;5089529;28;20039;-68
2022/03/14 00:18:34;;;;;;;13.03;5.77;;;;;;;;;;5089295;28;20789;-68
2022/03/14 00:21:00;;;;;;;12.57;5.90;;;;;;;;;;5086925;28;20561;-67
2022/03/14 00:23:26;;;;;;;13.70;6.33;;;;;;;;;;5089224;28;20107;-68
2022/03/14 00:25:52;;;;;;;14.70;6.53;;;;;;;;;;5088725;28;20028;-68
2022/03/14 00:28:17;;;;;;;16.60;5.97;;;;;;;;;;5086676;28;20739;-68
2022/03/14 00:30:43;;;;;;;11.47;6.23;;;;;;;;;;5088615;28;20026;-68
2022/03/14 00:33:08;;;;;;;16.17;6.40;;;;;;;;;;5092912;28;20381;-68
2022/03/14 00:35:33;;;;;;;13.93;6.77;;;;;;;;;;5088472;28;20419;-68
2022/03/14 00:38:00;;;;;;;13.07;6.43;;;;;;;;;;5087454;28;20387;-68
2022/03/14 00:40:26;;;;;;;11.40;6.23;;;;;;;;;;5086390;28;20531;-68
2022/03/14 00:42:51;;;;;;;13.13;7.07;;;;;;;;;;5087604;28;20102;-68
2022/03/14 00:45:17;;;;;;;11.27;6.00;;;;;;;;;;5084813;28;20428;-68
2022/03/14 00:47:42;;;;;;;14.17;6.40;;;;;;;;;;5100351;28;20052;-68
2022/03/14 00:50:08;;;;;;;12.97;6.10;;;;;;;;;;5080754;28;20040;-68
2022/03/14 00:52:33;;;;;;;11.67;6.00;;;;;;;;;;5088201;28;20031;-68
2022/03/14 00:54:59;;;;;;;12.97;6.23;;;;;;;;;;5093275;28;20077;-68
2022/03/14 00:57:24;;;;;;;13.63;6.30;;;;;;;;;;5086623;28;20028;-68
2022/03/14 00:59:49;;;;;;;12.70;5.83;;;;;;;;;;5086988;28;20043;-68
2022/03/14 01:02:14;;;;;;;11.97;6.20;;;;;;;;;;5090971;28;20026;-68
2022/03/14 01:04:40;;;;;;;17.80;7.40;;;;;;;;;;5097180;28;20040;-68
2022/03/14 01:07:05;;;;;;;11.30;6.53;;;;;;;;;;5099207;28;20027;-68
2022/03/14 01:09:30;;;;;;;15.33;6.17;;;;;;;;;;5089443;28;20027;-68
2022/03/14 01:11:56;;;;;;;13.03;6.50;;;;;;;;;;5085694;28;20068;-68
2022/03/14 01:14:22;;;;;;;11.60;5.93;;;;;;;;;;5094435;28;20106;-68
2022/03/14 01:16:48;;;;;;;12.63;6.23;;;;;;;;;;5094996;28;20032;-68
2022/03/14 01:19:15;;;;;;;11.73;6.00;;;;;;;;;;5086863;28;20024;-68
2022/03/14 01:21:40;;;;;;;15.00;6.67;;;;;;;;;;5091370;28;20450;-68
2022/03/14 01:24:05;;;;;;;14.87;5.90;;;;;;;;;;5099511;28;20028;-68
2022/03/14 01:26:32;;;;;;;11.37;5.53;;;;;;;;;;5104290;28;20417;-68
2022/03/14 01:28:58;;;;;;;13.27;6.37;;;;;;;;;;5095956;28;20124;-68
2022/03/14 01:31:23;;;;;;;15.30;6.70;;;;;;;;;;5090642;28;20518;-68
2022/03/14 01:33:48;;;;;;;15.23;6.33;;;;;;;;;;5092671;28;20035;-68
2022/03/14 01:36:13;;;;;;;12.60;6.37;;;;;;;;;;5087812;28;20038;-68
2022/03/14 01:38:38;;;;;;;13.60;6.37;;;;;;;;;;5094710;28;20101;-68
2022/03/14 01:41:04;;;;;;;12.00;6.07;;;;;;;;;;5084875;28;20480;-68
2022/03/14 01:43:29;;;;;;;15.57;6.07;;;;;;;;;;5096799;28;20066;-68
2022/03/14 01:45:57;;;;;;;13.77;6.47;;;;;;;;;;5094516;28;20768;-68
2022/03/14 01:48:24;;;;;;;11.90;5.87;;;;;;;;;;5091549;28;20027;-68
2022/03/14 01:50:49;;;;;;;12.27;6.20;;;;;;;;;;5088568;28;20030;-67
2022/03/14 01:53:16;;;;;;;15.00;6.43;;;;;;;;;;5088391;28;20029;-68
2022/03/14 01:55:41;;;;;;;14.50;7.13;;;;;;;;;;5094029;28;20070;-68
2022/03/14 01:58:07;;;;;;;14.90;6.53;;;;;;;;;;5092635;28;20055;-68
2022/03/14 02:00:32;;;;;;;19.17;6.77;;;;;;;;;;5090575;28;20020;-68
2022/03/14 02:02:57;;;;;;;14.10;6.40;;;;;;;;;;5090097;28;20040;-68
2022/03/14 02:05:22;;;;;;;16.27;7.20;;;;;;;;;;5045573;23;20057;-69
2022/03/14 02:07:48;;;;;;;14.80;6.70;;;;;;;;;;5037814;28;20029;-69
2022/03/14 02:10:13;;;;;;;13.93;5.87;;;;;;;;;;5037459;28;20040;-69
2022/03/14 02:12:43;;;;;;;13.43;6.70;;;;;;;;;;5037960;28;20025;-69
2022/03/14 02:15:08;;;;;;;14.53;6.83;;;;;;;;;;5037182;28;20040;-69
2022/03/14 02:17:33;;;;;;;14.77;6.60;;;;;;;;;;5033819;28;20033;-69
2022/03/14 02:19:59;;;;;;;14.27;7.13;;;;;;;;;;5037207;28;20492;-69
2022/03/14 02:22:24;;;;;;;12.37;6.27;;;;;;;;;;5037574;28;20469;-69
2022/03/14 02:24:49;;;;;;;15.50;7.20;;;;;;;;;;5033866;28;20020;-69
2022/03/14 02:27:15;;;;;;;16.07;6.87;;;;;;;;;;5037654;28;20029;-69
2022/03/14 02:29:41;;;;;;;12.37;6.50;;;;;;;;;;5037151;28;20066;-69
2022/03/14 02:32:11;;;;;;;13.07;6.10;;;;;;;;;;5037905;28;20248;-69
2022/03/14 02:34:36;;;;;;;12.90;6.20;;;;;;;;;;5035247;28;20135;-69
2022/03/14 02:37:04;;;;;;;14.07;6.27;;;;;;;;;;5037334;28;20124;-69
2022/03/14 02:39:31;;;;;;;12.73;5.90;;;;;;;;;;5037120;28;20049;-69
2022/03/14 02:41:56;;;;;;;13.77;6.90;;;;;;;;;;5037580;28;20035;-69
2022/03/14 02:44:21;;;;;;;13.30;6.47;;;;;;;;;;5036429;28;20025;-69
2022/03/14 02:46:46;;;;;;;14.93;7.03;;;;;;;;;;5037758;28;20086;-69
2022/03/14 02:49:12;;;;;;;12.60;7.20;;;;;;;;;;5035339;28;20112;-69
2022/03/14 02:51:38;;;;;;;14.30;7.60;;;;;;;;;;5037289;28;20043;-69
2022/03/14 02:54:12;;;;;;;13.77;6.67;;;;;;;;;;5036903;28;20021;-69
2022/03/14 02:56:39;;;;;;;13.70;6.83;;;;;;;;;;5036659;28;20200;-69
2022/03/14 02:59:05;;;;;;;13.37;6.87;;;;;;;;;;5036652;28;20116;-69
2022/03/14 03:01:31;;;;;;;11.13;5.90;;;;;;;;;;5037216;28;20221;-69
2022/03/14 03:03:56;;;;;;;13.27;6.53;;;;;;;;;;5036722;28;20263;-69
2022/03/14 03:06:24;;;;;;;13.37;5.97;;;;;;;;;;5036958;28;20033;-69
2022/03/14 03:08:50;;;;;;;16.00;6.47;;;;;;;;;;5041170;28;20041;-69
2022/03/14 03:11:15;;;;;;;11.37;6.13;;;;;;;;;;5040927;28;20276;-69
2022/03/14 03:13:41;;;;;;;14.90;6.23;;;;;;;;;;5039849;28;20029;-69
2022/03/14 03:16:07;;;;;;;10.80;5.80;;;;;;;;;;5040685;28;20477;-70
2022/03/14 03:18:32;;;;;;;13.47;6.47;;;;;;;;;;5036137;28;20051;-69
2022/03/14 03:20:58;;;;;;;15.07;6.90;;;;;;;;;;5040845;28;20058;-69
2022/03/14 03:23:23;;;;;;;14.37;6.43;;;;;;;;;;5040519;28;20032;-69
2022/03/14 03:25:48;;;;;;;13.07;6.53;;;;;;;;;;5036659;28;20021;-69
2022/03/14 03:28:13;;;;;;;16.77;7.43;;;;;;;;;;5040741;28;20103;-69
2022/03/14 03:30:38;;;;;;;14.90;7.10;;;;;;;;;;5040612;28;20025;-69
2022/03/14 03:33:04;;;;;;;22.97;8.67;;;;;;;;;;5040571;28;20036;-69
2022/03/14 03:35:29;;;;;;;13.93;7.00;;;;;;;;;;5040338;28;20071;-69
2022/03/14 03:37:54;;;;;;;15.57;7.47;;;;;;;;;;5040333;28;20036;-69
2022/03/14 03:40:20;;;;;;;17.20;7.67;;;;;;;;;;5040657;28;20021;-69
2022/03/14 03:42:45;;;;;;;16.60;7.67;;;;;;;;;;5040219;28;20512;-69
2022/03/14 03:45:10;;;;;;;20.53;7.00;;;;;;;;;;5040294;28;20325;-69
2022/03/14 03:47:36;;;;;;;15.23;6.43;;;;;;;;;;5040465;28;20326;-69
2022/03/14 03:50:01;;;;;;;14.43;7.37;;;;;;;;;;5040014;28;20043;-69
2022/03/14 03:52:26;;;;;;;18.43;7.43;;;;;;;;;;5040581;28;20024;-69
2022/03/14 03:54:52;;;;;;;16.43;7.97;;;;;;;;;;5040109;28;20047;-69
2022/03/14 03:57:20;;;;;;;14.10;7.03;;;;;;;;;;5040045;28;20033;-68
2022/03/14 03:59:45;;;;;;;16.17;7.27;;;;;;;;;;5040273;28;20017;-69
2022/03/14 04:02:11;;;;;;;15.43;6.90;;;;;;;;;;5041239;28;20028;-69
2022/03/14 04:04:37;;;;;;;14.67;7.67;;;;;;;;;;5040171;28;20064;-69
2022/03/14 04:07:04;;;;;;;12.70;6.63;;;;;;;;;;5041314;28;20148;-69
2022/03/14 04:09:29;;;;;;;14.03;6.60;;;;;;;;;;5040811;28;20128;-69
2022/03/14 04:11:54;;;;;;;19.27;6.20;;;;;;;;;;5040991;28;20365;-69
2022/03/14 04:14:21;;;;;;;18.97;7.03;;;;;;;;;;5040727;28;20048;-69
2022/03/14 04:16:46;;;;;;;14.93;6.47;;;;;;;;;;5041117;28;20025;-69
2022/03/14 04:19:12;;;;;;;12.53;7.00;;;;;;;;;;5039704;28;20561;-69
2022/03/14 04:21:39;;;;;;;14.17;6.10;;;;;;;;;;5040712;28;20082;-69
2022/03/14 04:24:05;;;;;;;16.03;7.13;;;;;;;;;;5040503;28;20029;-69
2022/03/14 04:26:30;;;;;;;13.10;6.50;;;;;;;;;;5040625;28;20036;-69
2022/03/14 04:28:55;;;;;;;17.07;7.20;;;;;;;;;;5040356;28;20033;-69
2022/03/14 04:31:21;;;;;;;17.43;7.20;;;;;;;;;;5040717;28;20680;-69
2022/03/14 04:33:47;;;;;;;15.13;8.57;;;;;;;;;;5040341;28;20021;-69
2022/03/14 04:36:13;;;;;;;18.03;8.27;;;;;;;;;;5040558;28;20114;-69
2022/03/14 04:38:38;;;;;;;17.50;8.33;;;;;;;;;;5040195;28;20013;-70
2022/03/14 04:41:04;;;;;;;16.43;8.37;;;;;;;;;;5040329;28;20032;-70
2022/03/14 04:43:29;;;;;;;17.07;8.77;;;;;;;;;;5039101;28;20021;-70
2022/03/14 04:45:54;;;;;;;19.60;8.90;;;;;;;;;;5040328;28;20025;-70
2022/03/14 04:48:20;;;;;;;16.77;8.80;;;;;;;;;;5040241;28;20029;-69
2022/03/14 04:50:45;;;;;;;21.93;9.50;;;;;;;;;;5040191;28;20043;-70
2022/03/14 04:53:11;;;;;;;19.70;9.27;;;;;;;;;;5040536;28;20040;-70
2022/03/14 04:55:36;;;;;;;20.40;9.17;;;;;;;;;;5040030;28;20250;-69
2022/03/14 04:58:06;;;;;;;18.10;9.30;;;;;;;;;;5040073;28;20025;-69
2022/03/14 05:00:32;;;;;;;21.70;9.47;;;;;;;;;;5040100;28;20083;-70
2022/03/14 05:03:04;;;;;;;21.30;9.70;;;;;;;;;;5037016;28;20032;-69
2022/03/14 05:05:30;;;;;;;18.20;9.03;;;;;;;;;;5039146;28;20037;-69
2022/03/14 05:07:55;;;;;;;20.13;9.90;;;;;;;;;;5040103;28;20317;-69
2022/03/14 05:10:21;;;;;;;18.87;9.83;;;;;;;;;;5039722;28;20025;-69
2022/03/14 05:12:46;;;;;;;18.87;9.80;;;;;;;;;;5039110;28;20217;-69
2022/03/14 05:15:14;;;;;;;17.53;9.83;;;;;;;;;;5039338;28;20020;-70
2022/03/14 05:17:40;;;;;;;19.30;9.77;;;;;;;;;;5026518;28;20025;-69
2022/03/14 05:20:05;;;;;;;22.73;10.60;;;;;;;;;;5033247;28;20025;-71
2022/03/14 05:22:35;;;;;;;20.83;10.97;;;;;;;;;;5020981;28;20099;-69
2022/03/14 05:25:00;;;;;;;23.97;10.90;;;;;;;;;;5014501;28;20326;-66
2022/03/14 05:27:26;;;;;;;24.57;11.47;;;;;;;;;;5039178;28;20326;-68
2022/03/14 05:29:51;;;;;;;22.93;11.63;;;;;;;;;;5039053;28;20032;-68
2022/03/14 05:32:16;;;;;;;23.47;11.33;;;;;;;;;;5033286;28;20036;-68
2022/03/14 05:34:42;;;;;;;23.17;11.93;;;;;;;;;;5038921;28;20036;-68
2022/03/14 05:37:08;;;;;;;23.50;11.53;;;;;;;;;;5039806;28;20036;-68
2022/03/14 05:39:33;;;;;;;21.50;11.23;;;;;;;;;;5039268;28;20028;-68
2022/03/14 05:41:59;;;;;;;23.57;11.97;;;;;;;;;;5038449;28;20027;-68
2022/03/14 05:44:25;;;;;;;23.03;11.83;;;;;;;;;;5038821;28;20033;-67
2022/03/14 05:46:51;;;;;;;28.23;12.37;;;;;;;;;;5039909;28;20512;-67
2022/03/14 05:49:16;;;;;;;23.33;11.70;;;;;;;;;;5038767;28;20056;-67
2022/03/14 05:51:41;;;;;;;25.20;12.97;;;;;;;;;;5039405;28;20029;-68
2022/03/14 05:54:08;;;;;;;25.17;12.23;;;;;;;;;;5039089;28;20124;-67
2022/03/14 05:56:33;;;;;;;24.17;12.27;;;;;;;;;;5039068;28;20090;-67
2022/03/14 05:58:58;;;;;;;21.43;11.60;;;;;;;;;;5038891;28;20035;-68
2022/03/14 06:01:24;;;;;;;26.10;13.07;;;;;;;;;;5029326;28;20493;-68
2022/03/14 06:03:49;;;;;;;24.27;12.43;;;;;;;;;;5024937;28;20121;-67
2022/03/14 06:06:15;;;;;;;22.50;11.57;;;;;;;;;;5037137;28;20517;-67
2022/03/14 06:08:40;;;;;;;26.57;13.73;;;;;;;;;;5033498;28;20485;-67
2022/03/14 06:11:06;;;;;;;30.53;13.20;;;;;;;;;;5038587;28;20399;-67
2022/03/14 06:13:32;;;;;;;28.13;13.53;;;;;;;;;;5037880;28;20508;-67
2022/03/14 06:15:57;;;;;;;27.30;14.50;;;;;;;;;;5037356;28;20029;-67
2022/03/14 06:18:22;;;;;;;28.73;14.03;;;;;;;;;;5033134;28;20373;-67
2022/03/14 06:20:48;;;;;;;30.97;15.20;;;;;;;;;;5032394;28;20025;-67
2022/03/14 06:23:13;;;;;;;28.80;14.27;;;;;;;;;;5028751;28;20025;-67
2022/03/14 06:25:39;;;;;;;28.40;13.80;;;;;;;;;;5036916;28;20280;-68
2022/03/14 06:28:04;;;;;;;33.80;15.30;;;;;;;;;;5032131;28;20281;-68
2022/03/14 06:30:29;;;;;;;28.73;14.53;;;;;;;;;;5037276;28;20187;-68
2022/03/14 06:32:54;;;;;;;28.30;14.27;;;;;;;;;;5019660;28;20029;-68
2022/03/14 06:35:20;;;;;;;29.07;14.30;;;;;;;;;;5032485;28;20036;-68
2022/03/14 06:37:50;;;;;;;28.40;13.93;;;;;;;;;;5034014;28;20134;-67
2022/03/14 06:40:15;;;;;;;30.30;14.73;;;;;;;;;;5036293;28;20300;-68
2022/03/14 06:42:41;;;;;;;32.07;14.77;;;;;;;;;;5025365;28;20436;-68
2022/03/14 06:45:07;;;;;;;31.23;14.87;;;;;;;;;;5035944;28;20048;-68
2022/03/14 06:47:32;;;;;;;33.67;15.50;;;;;;;;;;5036640;28;20194;-68
2022/03/14 06:49:58;;;;;;;29.13;14.40;;;;;;;;;;5028590;28;20043;-68
2022/03/14 06:52:23;;;;;;;32.90;14.73;;;;;;;;;;5034090;28;20554;-68
2022/03/14 06:54:48;;;;;;;30.67;15.10;;;;;;;;;;5031469;28;20029;-68
2022/03/14 06:57:13;;;;;;;29.83;14.03;;;;;;;;;;5039047;28;20028;-66
2022/03/14 06:59:39;;;;;;;27.60;14.73;;;;;;;;;;5038630;28;20519;-68
2022/03/14 07:02:05;;;;;;;33.03;15.50;;;;;;;;;;5032014;28;20512;-68
2022/03/14 07:04:30;;;;;;;30.03;15.33;;;;;;;;;;5032131;28;20067;-66
2022/03/14 07:06:55;;;;;;;31.30;15.07;;;;;;;;;;5029132;28;20126;-66
2022/03/14 07:09:21;;;;;;;30.00;15.47;;;;;;;;;;5027037;28;20428;-66
2022/03/14 07:11:51;;;;;;;30.73;16.13;;;;;;;;;;5019815;28;20200;-66
2022/03/14 07:14:17;;;;;;;31.43;15.03;;;;;;;;;;5038114;28;20679;-66
2022/03/14 07:16:43;;;;;;;32.57;15.80;;;;;;;;;;5038586;28;20037;-66
2022/03/14 07:19:09;;;;;;;31.97;15.87;;;;;;;;;;5038340;28;20139;-65
2022/03/14 07:21:34;;;;;;;33.17;15.13;;;;;;;;;;5038723;28;20021;-66
2022/03/14 07:23:59;;;;;;;33.77;16.97;;;;;;;;;;5038162;28;20029;-66
2022/03/14 07:26:24;;;;;;;32.33;16.23;;;;;;;;;;5029471;28;20039;-66
2022/03/14 07:28:50;;;;;;;38.63;18.10;;;;;;;;;;5021215;28;20364;-66
2022/03/14 07:31:20;;;;;;;35.40;17.57;;;;;;;;;;5035340;28;20262;-65
2022/03/14 07:33:45;;;;;;;36.37;18.60;;;;;;;;;;5020332;28;20419;-65
2022/03/14 07:36:11;;;;;;;39.87;17.80;;;;;;;;;;5038104;28;20029;-65
2022/03/14 07:38:36;;;;;;;38.03;19.00;;;;;;;;;;5038159;28;20021;-66
2022/03/14 07:41:02;;;;;;;38.20;17.23;;;;;;;;;;5037631;28;20484;-66
2022/03/14 07:43:27;;;;;;;41.90;20.33;;;;;;;;;;5038333;28;20262;-66
2022/03/14 07:45:52;;;;;;;41.53;20.60;;;;;;;;;;5038167;28;20029;-65
2022/03/14 07:48:18;;;;;;;39.20;21.10;;;;;;;;;;5038401;28;20236;-65
2022/03/14 07:50:43;;;;;;;45.50;22.10;;;;;;;;;;5037998;28;20091;-66
2022/03/14 07:53:08;;;;;;;40.83;20.40;;;;;;;;;;5039430;28;20021;-66
2022/03/14 07:55:34;;;;;;;43.30;19.23;;;;;;;;;;5040948;28;20029;-66
2022/03/14 07:57:59;;;;;;;43.20;21.37;;;;;;;;;;5041932;28;20131;-66
2022/03/14 08:00:24;;;;;;;41.53;19.93;;;;;;;;;;5041465;28;20183;-66
2022/03/14 08:02:50;;;;;;;41.00;19.90;;;;;;;;;;5041859;28;20029;-66
2022/03/14 08:05:16;;;;;;;39.67;19.87;;;;;;;;;;5041164;28;20536;-66
2022/03/14 08:07:46;;;;;;;38.77;20.30;;;;;;;;;;5041832;28;20044;-66
2022/03/14 08:10:12;;;;;;;33.97;15.97;;;;;;;;;;5041049;28;20447;-66
2022/03/14 08:12:56;;;;;;;40.00;19.53;;;;;;;;;;5041099;28;20112;-66
2022/03/14 08:15:21;;;;;;;41.57;20.33;;;;;;;;;;5041252;28;20032;-66
2022/03/14 08:17:47;;;;;;;38.33;17.63;;;;;;;;;;5041567;28;20232;-67
2022/03/14 08:20:12;;;;;;;40.00;18.87;;;;;;;;;;5041076;28;20087;-66
2022/03/14 08:22:38;;;;;;;38.83;17.67;;;;;;;;;;5041412;28;20592;-66
2022/03/14 08:25:03;;;;;;;41.57;18.20;;;;;;;;;;5035240;28;20017;-65
2022/03/14 08:27:29;;;;;;;35.53;17.87;;;;;;;;;;5021416;28;20544;-65
2022/03/14 08:29:54;;;;;;;33.13;15.13;;;;;;;;;;5032456;28;20033;-65
2022/03/14 08:32:22;;;;;;;32.10;15.13;;;;;;;;;;5041445;28;20095;-65
2022/03/14 08:34:47;;;;;;;34.53;15.73;;;;;;;;;;5041128;28;20112;-66
2022/03/14 08:37:12;;;;;;;29.67;13.43;;;;;;;;;;5041361;28;20540;-66
2022/03/14 08:39:38;;;;;;;32.87;16.47;;;;;;;;;;5030811;28;20255;-65
2022/03/14 08:42:04;;;;;;;33.87;16.73;;;;;;;;;;5021244;28;20619;-65
2022/03/14 08:44:29;;;;;;;31.60;15.97;;;;;;;;;;5028802;28;20024;-65
2022/03/14 08:46:55;;;;;;;29.90;13.90;;;;;;;;;;5040778;28;20032;-66
2022/03/14 08:49:20;;;;;;;29.17;14.13;;;;;;;;;;5040750;28;20032;-66
2022/03/14 08:51:45;;;;;;;31.50;14.13;;;;;;;;;;5040654;28;20033;-66
2022/03/14 08:54:11;;;;;;;30.13;14.70;;;;;;;;;;5040334;28;20037;-65
2022/03/14 08:56:37;;;;;;;25.83;12.80;;;;;;;;;;5040876;28;20119;-65
2022/03/14 08:59:03;;;;;;;30.27;15.00;;;;;;;;;;5039909;28;20032;-66
2022/03/14 09:01:28;;;;;;;29.50;15.03;;;;;;;;;;5038124;28;20078;-66
2022/03/14 09:03:53;;;;;;;28.77;14.17;;;;;;;;;;5039644;28;20037;-65
2022/03/14 09:06:18;;;;;;;23.93;12.93;;;;;;;;;;5039840;28;20456;-65
2022/03/14 09:08:44;;;;;;;21.03;9.87;;;;;;;;;;5040013;28;20189;-66
2022/03/14 09:11:09;;;;;;;24.23;13.00;;;;;;;;;;5040456;28;20053;-66
2022/03/14 09:13:34;;;;;;;23.93;12.20;;;;;;;;;;5039739;28;20165;-66
2022/03/14 09:16:00;;;;;;;26.50;12.30;;;;;;;;;;5040508;28;20428;-65
2022/03/14 09:18:31;;;;;;;26.60;12.60;;;;;;;;;;5040364;28;20481;-65
2022/03/14 09:20:56;;;;;;;23.33;11.73;;;;;;;;;;5040492;28;20028;-65
2022/03/14 09:23:21;;;;;;;25.10;13.17;;;;;;;;;;5040389;28;20031;-66
2022/03/14 09:25:47;;;;;;;22.33;11.40;;;;;;;;;;5040005;28;20027;-66
2022/03/14 09:28:13;;;;;;;22.37;10.73;;;;;;;;;;5040039;28;20432;-66
2022/03/14 09:30:39;;;;;;;23.30;10.83;;;;;;;;;;5040291;28;20431;-66
2022/03/14 09:33:04;;;;;;;22.37;11.87;;;;;;;;;;5039387;28;20329;-65
2022/03/14 09:35:30;;;;;;;24.97;12.23;;;;;;;;;;5037807;28;20033;-65
2022/03/14 09:37:55;;;;;;;22.40;11.83;;;;;;;;;;5040068;28;20281;-66
2022/03/14 09:40:21;;;;;;;23.50;11.97;;;;;;;;;;5040097;28;20342;-65
2022/03/14 09:42:48;;;;;;;20.47;11.00;;;;;;;;;;5039603;28;20033;-65
2022/03/14 09:45:14;;;;;;;20.17;10.77;;;;;;;;;;5039508;28;20067;-65
2022/03/14 09:47:41;;;;;;;19.53;10.03;;;;;;;;;;5040302;28;20037;-65
2022/03/14 09:50:08;;;;;;;20.70;9.83;;;;;;;;;;5039583;28;20017;-65
2022/03/14 09:52:35;;;;;;;21.17;10.13;;;;;;;;;;5039603;28;20399;-65
2022/03/14 09:55:00;;;;;;;17.50;9.80;;;;;;;;;;5039538;28;20111;-65
2022/03/14 09:57:26;;;;;;;19.53;10.47;;;;;;;;;;5037783;28;20108;-65
2022/03/14 09:59:53;;;;;;;21.30;10.47;;;;;;;;;;5039519;28;20424;-65
2022/03/14 10:02:18;;;;;;;17.83;9.73;;;;;;;;;;5039755;28;20277;-65
2022/03/14 10:04:43;;;;;;;17.63;9.43;;;;;;;;;;5039185;28;20076;-65
2022/03/14 10:07:08;;;;;;;18.30;9.00;;;;;;;;;;5039606;28;20033;-65
2022/03/14 10:09:34;;;;;;;16.47;8.70;;;;;;;;;;5039451;28;20029;-65
2022/03/14 10:12:00;;;;;;;15.77;8.03;;;;;;;;;;5039352;28;20028;-65
2022/03/14 10:14:25;;;;;;;14.30;7.67;;;;;;;;;;5039164;28;20609;-65
2022/03/14 10:16:56;;;;;;;18.70;8.77;;;;;;;;;;5038419;28;20020;-65
2022/03/14 10:19:28;;;;;;;18.33;8.87;;;;;;;;;;5038475;28;20289;-65
2022/03/14 10:21:53;;;;;;;15.90;7.67;;;;;;;;;;5039566;28;20052;-65
2022/03/14 10:24:22;;;;;;;15.33;8.63;;;;;;;;;;5039061;28;20013;-66
2022/03/14 10:26:48;;;;;;;15.67;7.63;;;;;;;;;;5038738;28;20473;-65
2022/03/14 10:29:14;;;;;;;14.27;8.10;;;;;;;;;;5038868;28;20194;-65
2022/03/14 10:31:45;;;;;;;13.70;7.80;;;;;;;;;;5038931;28;20054;-65
2022/03/14 10:34:12;;;;;;;15.25;7.57;;;;;;;;;;5038673;28;20078;-65
2022/03/14 10:36:38;;;;;;;13.03;7.10;;;;;;;;;;5039105;28;20033;-64
2022/03/14 10:39:12;;;;;;;14.17;7.20;;;;;;;;;;5038649;28;20017;-65
2022/03/14 10:41:39;;;;;;;13.23;6.93;;;;;;;;;;5038759;28;20028;-65
2022/03/14 10:44:05;;;;;;;11.57;6.20;;;;;;;;;;5029426;28;20147;-65
2022/03/14 10:46:30;;;;;;;12.83;6.83;;;;;;;;;;5019234;28;20140;-65
2022/03/14 10:48:55;;;;;;;13.67;7.03;;;;;;;;;;5022397;28;20076;-65
2022/03/14 10:51:20;;;;;;;15.00;7.13;;;;;;;;;;5038957;28;20029;-65
2022/03/14 10:53:46;;;;;;;12.67;6.80;;;;;;;;;;5038697;28;20025;-65
2022/03/14 10:56:12;;;;;;;11.93;6.43;;;;;;;;;;5038965;28;20111;-65
2022/03/14 10:58:39;;;;;;;12.30;6.77;;;;;;;;;;5038448;28;20087;-65
2022/03/14 11:01:05;;;;;;;12.87;6.73;;;;;;;;;;5033543;28;20486;-65
2022/03/14 11:03:34;;;;;;;17.47;7.50;;;;;;;;;;5018579;28;20025;-65
2022/03/14 11:06:00;;;;;;;15.30;7.73;;;;;;;;;;5037281;28;20071;-65
2022/03/14 11:08:30;;;;;;;12.83;6.77;;;;;;;;;;5034787;28;20119;-65
2022/03/14 11:10:55;;;;;;;13.53;7.50;;;;;;;;;;5038543;28;20183;-65
2022/03/14 11:13:21;;;;;;;13.33;6.63;;;;;;;;;;5038646;28;20166;-65
2022/03/14 11:15:46;;;;;;;13.87;7.37;;;;;;;;;;5036642;28;20116;-65
2022/03/14 11:18:11;;;;;;;17.30;8.10;;;;;;;;;;5038628;28;20040;-65
2022/03/14 11:20:37;;;;;;;17.00;8.43;;;;;;;;;;5038015;28;20382;-65
2022/03/14 11:23:03;;;;;;;14.73;8.00;;;;;;;;;;5038780;28;20032;-65
2022/03/14 11:25:29;;;;;;;14.37;8.00;;;;;;;;;;5038267;28;20025;-65
2022/03/14 11:27:55;;;;;;;16.57;8.40;;;;;;;;;;5039198;28;20039;-65
2022/03/14 11:30:21;;;;;;;17.13;9.33;;;;;;;;;;5042126;28;20029;-65
2022/03/14 11:32:46;;;;;;;16.30;7.67;;;;;;;;;;5042127;28;20090;-65
2022/03/14 11:35:12;;;;;;;16.93;8.13;;;;;;;;;;5041907;28;20118;-65
2022/03/14 11:37:37;;;;;;;15.07;7.73;;;;;;;;;;5042310;28;20039;-65
2022/03/14 11:40:04;;;;;;;14.37;8.30;;;;;;;;;;5042111;28;20024;-65
2022/03/14 11:42:29;;;;;;;15.97;8.93;;;;;;;;;;5039433;28;20479;-65
2022/03/14 11:44:55;;;;;;;16.00;8.37;;;;;;;;;;5041250;28;20025;-66
2022/03/14 11:47:21;;;;;;;17.40;8.70;;;;;;;;;;5041621;28;20049;-65
2022/03/14 11:49:47;;;;;;;15.97;9.10;;;;;;;;;;5041527;28;20103;-66
2022/03/14 11:52:18;;;;;;;17.20;10.03;;;;;;;;;;5041975;28;20091;-66
2022/03/14 11:54:48;;;;;;;17.45;9.70;;;;;;;;;;5041676;28;20480;-66
2022/03/14 11:57:31;;;;;;;18.63;10.13;;;;;;;;;;5041565;28;20029;-66
2022/03/14 11:59:56;;;;;;;17.37;9.40;;;;;;;;;;5041118;28;20202;-66
2022/03/14 12:02:39;;;;;;;19.97;10.57;;;;;;;;;;5041343;28;20092;-66
2022/03/14 12:05:04;;;;;;;18.10;10.17;;;;;;;;;;5041290;28;20390;-66
2022/03/14 12:07:30;;;;;;;18.60;9.80;;;;;;;;;;5041659;28;20193;-66
2022/03/14 12:09:57;;;;;;;20.87;11.63;;;;;;;;;;5041090;28;20639;-66
2022/03/14 12:12:29;;;;;;;18.90;10.50;;;;;;;;;;5041237;28;20032;-66
2022/03/14 12:14:58;;;;;;;17.47;9.33;;;;;;;;;;5040821;28;20056;-66
2022/03/14 12:17:23;;;;;;;21.77;11.23;;;;;;;;;;5040708;28;20016;-66
2022/03/14 12:19:50;;;;;;;21.10;10.70;;;;;;;;;;5041165;28;20036;-66
2022/03/14 12:22:28;;;;;;;18.93;9.73;;;;;;;;;;5041482;28;20021;-66
2022/03/14 12:24:53;;;;;;;16.97;9.23;;;;;;;;;;5040970;28;20033;-66
2022/03/14 12:27:24;;;;;;;18.90;10.40;;;;;;;;;;5041166;28;20059;-66
2022/03/14 12:29:53;;;;;;;16.87;9.00;;;;;;;;;;5040138;28;20047;-66
2022/03/14 12:32:28;;;;;;;21.33;10.57;;;;;;;;;;5041069;28;20287;-66
2022/03/14 12:34:58;;;;;;;19.60;10.63;;;;;;;;;;5040768;28;20116;-66
2022/03/14 12:37:25;;;;;;;17.53;9.37;;;;;;;;;;5037189;28;20524;-66
2022/03/14 12:39:50;;;;;;;17.90;8.80;;;;;;;;;;5039629;28;20170;-66
2022/03/14 12:42:23;;;;;;;18.13;8.00;;;;;;;;;;5040981;28;20090;-66
2022/03/14 12:45:08;;;;;;;14.37;6.73;;;;;;;;;;5040303;28;20497;-66
2022/03/14 12:47:38;;;;;;;16.23;8.27;;;;;;;;;;5023946;28;20030;-66
2022/03/14 12:50:04;;;;;;;16.20;6.83;;;;;;;;;;5030967;28;20533;-66
2022/03/14 12:52:29;;;;;;;14.57;7.47;;;;;;;;;;5022132;28;20036;-66
2022/03/14 12:54:55;;;;;;;17.17;7.70;;;;;;;;;;5032351;28;20052;-66
2022/03/14 12:57:23;;;;;;;14.47;6.00;;;;;;;;;;5040597;28;20032;-66
2022/03/14 12:59:57;;;;;;;14.13;7.63;;;;;;;;;;5040580;28;20035;-66
2022/03/14 13:02:25;;;;;;;12.47;6.23;;;;;;;;;;5037548;28;20571;-66
2022/03/14 13:04:55;;;;;;;11.60;5.80;;;;;;;;;;5040194;28;20099;-66
2022/03/14 13:07:20;;;;;;;8.63;4.00;;;;;;;;;;5040186;28;20048;-66
2022/03/14 13:09:52;;;;;;;13.67;5.10;;;;;;;;;;5034575;28;20301;-66
2022/03/14 13:12:17;;;;;;;10.23;4.32;;;;;;;;;;5040189;28;20096;-66
2022/03/14 13:14:43;;;;;;;11.83;5.73;;;;;;;;;;5039442;28;20116;-66
2022/03/14 13:17:08;;;;;;;9.07;4.37;;;;;;;;;;5040039;28;20388;-66
2022/03/14 13:19:35;;;;;;;12.53;5.83;;;;;;;;;;5039832;28;20024;-66
2022/03/14 13:22:10;;;;;;;13.10;6.43;;;;;;;;;;5035338;28;20017;-66
2022/03/14 13:24:36;;;;;;;10.23;5.00;;;;;;;;;;5028785;28;20031;-66
2022/03/14 13:27:01;;;;;;;16.60;6.53;;;;;;;;;;5039977;28;20037;-66
2022/03/14 13:29:33;;;;;;;13.87;6.50;;;;;;;;;;5039820;28;20267;-66
2022/03/14 13:32:00;;;;;;;;;;;;;;;;;;5040727;28;20052;-66
2022/03/14 13:34:28;;;;;;;13.83;5.07;;;;;;;;;;5039736;28;20165;-66
2022/03/14 13:37:02;;;;;;;11.47;5.73;;;;;;;;;;5038715;28;20033;-66
2022/03/14 13:39:28;;;;;;;13.10;4.53;;;;;;;;;;5039595;28;20052;-66
2022/03/14 13:41:57;;;;;;;13.73;5.80;;;;;;;;;;5039833;28;20024;-66
2022/03/14 13:44:23;;;;;;;12.60;5.73;;;;;;;;;;5039519;28;20013;-66
2022/03/14 13:46:49;;;;;;;11.90;4.77;;;;;;;;;;5039583;28;20063;-66
2022/03/14 13:49:15;;;;;;;11.77;4.87;;;;;;;;;;5039524;28;20305;-67
2022/03/14 13:52:14;;;;;;;13.93;5.70;;;;;;;;;;5034990;28;20492;-66
2022/03/14 13:54:46;;;;;;;15.07;6.20;;;;;;;;;;4989566;28;20362;-66
2022/03/14 13:57:14;;;;;;;14.53;4.73;;;;;;;;;;4996709;28;20486;-66
2022/03/14 13:59:40;;;;;;;12.00;5.83;;;;;;;;;;4996503;28;20191;-66
2022/03/14 14:02:09;;;;;;;13.00;6.37;;;;;;;;;;4996792;28;20021;-66
2022/03/14 14:04:36;;;;;;;15.80;6.47;;;;;;;;;;4996100;28;20073;-66
2022/03/14 14:07:02;;;;;;;19.17;6.13;;;;;;;;;;4996696;28;20353;-66
2022/03/14 14:09:31;;;;;;;17.03;5.87;;;;;;;;;;4990192;28;20026;-67
2022/03/14 14:12:02;;;;;;;16.53;6.53;;;;;;;;;;4976711;28;20110;-67
2022/03/14 14:14:28;;;;;;;14.07;7.07;;;;;;;;;;4984488;28;20057;-66
2022/03/14 14:17:09;;;;;;;15.80;6.47;;;;;;;;;;4996235;28;20189;-66
2022/03/14 14:19:35;;;;;;;14.03;6.67;;;;;;;;;;4996534;28;20109;-66
2022/03/14 14:22:00;;;;;;;17.20;6.20;;;;;;;;;;4996374;28;20104;-66